Time;durP1;ratioP1;P1;durP2;ratioP2;P2;SDS_P1;SDS_P2;PMS_P1;PMS_P2;Temp;Humidity;BMP_temperature;BMP_pressure;BME280_temperature;BME280_humidity;BME280_pressure;Samples;Min_cycle;Max_cycle;Signal;HPM_P1;HPM_P2
2021/06/13 00:01:42;;;;;;;0.68;0.63;;;;;;;;;;5078570;28;20031;-85
2021/06/13 00:04:08;;;;;;;0.10;0.10;;;;;;;;;;5074061;28;20035;-85
2021/06/13 00:06:34;;;;;;;0.10;0.10;;;;;;;;;;5077420;28;20399;-83
2021/06/13 00:09:00;;;;;;;0.10;0.10;;;;;;;;;;5087139;28;20028;-85
2021/06/13 00:11:26;;;;;;;0.10;0.10;;;;;;;;;;5086221;28;20028;-84
2021/06/13 00:13:52;;;;;;;0.10;0.10;;;;;;;;;;5075091;28;20059;-85
2021/06/13 00:16:19;;;;;;;0.10;0.10;;;;;;;;;;5072146;28;20028;-84
2021/06/13 00:18:45;;;;;;;0.10;0.10;;;;;;;;;;5086987;28;20115;-85
2021/06/13 00:21:13;;;;;;;0.10;0.10;;;;;;;;;;5075004;28;20427;-85
2021/06/13 00:23:40;;;;;;;0.10;0.10;;;;;;;;;;5091199;28;20212;-85
2021/06/13 00:26:06;;;;;;;0.08;0.08;;;;;;;;;;5087835;28;20043;-85
2021/06/13 00:28:32;;;;;;;0.10;0.10;;;;;;;;;;5084502;28;20024;-83
2021/06/13 00:30:58;;;;;;;0.10;0.10;;;;;;;;;;5089759;28;20031;-85
2021/06/13 00:33:24;;;;;;;0.10;0.10;;;;;;;;;;5082356;28;20016;-85
2021/06/13 00:35:50;;;;;;;0.08;0.08;;;;;;;;;;5085848;28;20024;-85
2021/06/13 00:38:16;;;;;;;0.00;0.00;;;;;;;;;;5082297;28;20481;-85
2021/06/13 00:40:42;;;;;;;0.10;0.10;;;;;;;;;;5087852;28;20028;-85
2021/06/13 00:43:08;;;;;;;0.10;0.10;;;;;;;;;;5082878;28;20535;-84
2021/06/13 00:45:34;;;;;;;0.10;0.10;;;;;;;;;;5090282;28;20034;-85
2021/06/13 00:48:01;;;;;;;0.10;0.10;;;;;;;;;;5081798;28;20024;-85
2021/06/13 00:50:38;;;;;;;0.10;0.10;;;;;;;;;;5089720;28;20520;-85
2021/06/13 00:53:05;;;;;;;0.30;0.30;;;;;;;;;;5083061;28;20021;-85
2021/06/13 00:55:32;;;;;;;0.10;0.10;;;;;;;;;;5076219;28;20024;-85
2021/06/13 00:57:58;;;;;;;0.10;0.10;;;;;;;;;;5083466;28;20063;-85
2021/06/13 01:00:24;;;;;;;0.10;0.10;;;;;;;;;;5073810;28;20479;-85
2021/06/13 01:02:50;;;;;;;0.10;0.10;;;;;;;;;;5080248;28;20028;-85
2021/06/13 01:05:16;;;;;;;0.00;0.00;;;;;;;;;;5072832;28;20050;-85
2021/06/13 01:07:52;;;;;;;0.08;0.08;;;;;;;;;;5084909;28;20070;-85
2021/06/13 01:10:37;;;;;;;0.00;0.00;;;;;;;;;;5088310;28;20058;-85
2021/06/13 01:13:23;;;;;;;0.10;0.10;;;;;;;;;;5088942;28;20024;-84
2021/06/13 01:16:00;;;;;;;0.10;0.10;;;;;;;;;;5090532;28;20169;-85
2021/06/13 01:18:29;;;;;;;0.15;0.15;;;;;;;;;;5075483;28;20089;-85
2021/06/13 01:21:00;;;;;;;0.05;0.05;;;;;;;;;;5083025;28;20035;-85
2021/06/13 01:23:35;;;;;;;0.08;0.08;;;;;;;;;;5074664;28;20032;-85
2021/06/13 01:26:10;;;;;;;0.10;0.10;;;;;;;;;;5083134;28;20020;-85
2021/06/13 01:28:42;;;;;;;0.10;0.10;;;;;;;;;;5077831;28;20032;-85
2021/06/13 01:31:08;;;;;;;0.10;0.10;;;;;;;;;;5079587;28;20020;-85
2021/06/13 01:33:36;;;;;;;0.10;0.10;;;;;;;;;;5078321;28;20021;-85
2021/06/13 01:36:03;;;;;;;2.30;1.38;;;;;;;;;;5080257;28;20116;-85
2021/06/13 01:38:29;;;;;;;0.10;0.10;;;;;;;;;;5087184;28;20045;-84
2021/06/13 01:40:57;;;;;;;0.10;0.10;;;;;;;;;;5091935;28;20463;-84
2021/06/13 01:43:23;;;;;;;0.00;0.00;;;;;;;;;;5081503;28;20426;-84
2021/06/13 01:45:50;;;;;;;0.10;0.10;;;;;;;;;;5080489;28;20027;-84
2021/06/13 01:48:17;;;;;;;0.03;0.03;;;;;;;;;;5086057;28;20016;-85
2021/06/13 01:50:43;;;;;;;0.10;0.10;;;;;;;;;;5091059;28;20055;-84
2021/06/13 01:53:10;;;;;;;0.10;0.10;;;;;;;;;;5082180;28;20021;-85
2021/06/13 01:55:36;;;;;;;;;;;;;;;;;;5075358;28;20021;-83
2021/06/13 01:58:03;;;;;;;0.10;0.10;;;;;;;;;;5083505;28;19912;-83
2021/06/13 02:00:29;;;;;;;0.10;0.10;;;;;;;;;;5077610;28;20111;-83
2021/06/13 02:02:56;;;;;;;0.10;0.10;;;;;;;;;;5081864;28;20024;-84
2021/06/13 02:05:23;;;;;;;0.10;0.10;;;;;;;;;;5091201;28;20024;-83
2021/06/13 02:07:50;;;;;;;0.08;0.08;;;;;;;;;;5078794;28;20021;-84
2021/06/13 02:10:18;;;;;;;0.08;0.08;;;;;;;;;;5074239;28;20016;-84
2021/06/13 02:12:45;;;;;;;0.10;0.10;;;;;;;;;;5083636;28;20108;-84
2021/06/13 02:15:12;;;;;;;0.10;0.10;;;;;;;;;;5069910;28;20024;-83
2021/06/13 02:17:41;;;;;;;0.10;0.10;;;;;;;;;;5077926;28;20024;-85
2021/06/13 02:20:08;;;;;;;0.10;0.10;;;;;;;;;;5091897;28;20028;-80
2021/06/13 02:22:34;;;;;;;0.10;0.10;;;;;;;;;;5080704;28;20103;-81
2021/06/13 02:25:01;;;;;;;0.00;0.00;;;;;;;;;;5091202;28;20402;-82
2021/06/13 02:27:28;;;;;;;0.10;0.10;;;;;;;;;;5080407;28;20016;-82
2021/06/13 02:29:54;;;;;;;;;;;;;;;;;;5092039;28;20037;-81
2021/06/13 02:32:21;;;;;;;0.10;0.10;;;;;;;;;;5084843;28;20271;-82
2021/06/13 02:34:47;;;;;;;;;;;;;;;;;;5072569;28;20025;-80
2021/06/13 02:37:13;;;;;;;0.10;0.10;;;;;;;;;;5079206;28;20559;-82
2021/06/13 02:39:39;;;;;;;0.10;0.10;;;;;;;;;;5092094;28;20020;-82
2021/06/13 02:42:06;;;;;;;0.10;0.10;;;;;;;;;;5081132;28;20090;-81
2021/06/13 02:44:32;;;;;;;0.10;0.10;;;;;;;;;;5093231;28;20043;-82
2021/06/13 02:46:58;;;;;;;0.10;0.10;;;;;;;;;;5080009;28;20031;-81
2021/06/13 02:49:24;;;;;;;0.00;0.00;;;;;;;;;;5093091;28;20055;-82
2021/06/13 02:52:06;;;;;;;0.10;0.10;;;;;;;;;;5089633;28;20054;-81
2021/06/13 02:54:33;;;;;;;0.10;0.10;;;;;;;;;;5052925;28;20021;-81
2021/06/13 02:57:00;;;;;;;0.00;0.00;;;;;;;;;;5081528;28;20059;-81
2021/06/13 02:59:32;;;;;;;0.10;0.10;;;;;;;;;;5052711;28;20048;-82
2021/06/13 03:01:58;;;;;;;0.10;0.10;;;;;;;;;;5075391;28;20054;-81
2021/06/13 03:04:25;;;;;;;0.10;0.10;;;;;;;;;;5091438;28;20393;-81
2021/06/13 03:06:54;;;;;;;0.10;0.10;;;;;;;;;;5081878;28;20109;-82
2021/06/13 03:09:20;;;;;;;0.00;0.00;;;;;;;;;;5090823;28;20127;-81
2021/06/13 03:11:47;;;;;;;0.10;0.10;;;;;;;;;;5087149;28;20028;-82
2021/06/13 03:14:14;;;;;;;0.10;0.10;;;;;;;;;;5072704;28;20143;-81
2021/06/13 03:16:40;;;;;;;0.10;0.10;;;;;;;;;;5077998;28;20021;-82
2021/06/13 03:19:08;;;;;;;0.10;0.10;;;;;;;;;;5088881;28;20509;-82
2021/06/13 03:21:34;;;;;;;0.10;0.10;;;;;;;;;;5086022;28;20040;-82
2021/06/13 03:24:00;;;;;;;0.10;0.10;;;;;;;;;;5075731;28;20072;-81
2021/06/13 03:26:26;;;;;;;0.13;0.13;;;;;;;;;;5077579;28;20028;-82
2021/06/13 03:28:54;;;;;;;0.10;0.10;;;;;;;;;;5076789;28;20048;-82
2021/06/13 03:31:21;;;;;;;0.10;0.10;;;;;;;;;;5077370;28;20097;-82
2021/06/13 03:33:47;;;;;;;;;;;;;;;;;;5071281;28;20028;-82
2021/06/13 03:36:14;;;;;;;0.10;0.10;;;;;;;;;;5077506;28;19915;-82
2021/06/13 03:38:41;;;;;;;0.00;0.00;;;;;;;;;;5086310;28;20024;-82
2021/06/13 03:41:08;;;;;;;0.05;0.05;;;;;;;;;;5083960;28;20040;-82
2021/06/13 03:43:34;;;;;;;0.10;0.10;;;;;;;;;;5077754;28;20422;-82
2021/06/13 03:46:01;;;;;;;0.10;0.10;;;;;;;;;;5077206;28;20475;-82
2021/06/13 03:48:27;;;;;;;;;;;;;;;;;;5084468;28;20517;-82
2021/06/13 03:50:54;;;;;;;0.10;0.10;;;;;;;;;;5088284;28;19951;-82
2021/06/13 03:53:21;;;;;;;0.08;0.08;;;;;;;;;;5081657;28;20483;-82
2021/06/13 03:55:47;;;;;;;0.10;0.10;;;;;;;;;;5084965;28;20009;-81
2021/06/13 03:58:14;;;;;;;0.10;0.10;;;;;;;;;;5090809;28;20067;-82
2021/06/13 04:00:42;;;;;;;0.10;0.10;;;;;;;;;;5087289;28;20053;-82
2021/06/13 04:03:09;;;;;;;0.10;0.10;;;;;;;;;;5079762;28;20032;-82
2021/06/13 04:05:35;;;;;;;;;;;;;;;;;;5087481;28;20032;-82
2021/06/13 04:08:01;;;;;;;0.10;0.10;;;;;;;;;;5082983;28;19908;-82
2021/06/13 04:10:28;;;;;;;0.00;0.00;;;;;;;;;;5087106;28;20427;-82
2021/06/13 04:12:55;;;;;;;0.10;0.10;;;;;;;;;;5081518;28;20020;-82
2021/06/13 04:15:22;;;;;;;0.10;0.10;;;;;;;;;;5087182;28;20275;-82
2021/06/13 04:17:48;;;;;;;0.00;0.00;;;;;;;;;;5082617;28;20024;-82
2021/06/13 04:20:14;;;;;;;0.10;0.10;;;;;;;;;;5088109;28;20492;-82
2021/06/13 04:22:42;;;;;;;0.10;0.10;;;;;;;;;;5080189;28;20035;-83
2021/06/13 04:25:10;;;;;;;0.10;0.10;;;;;;;;;;5071291;28;20028;-82
2021/06/13 04:27:36;;;;;;;0.10;0.10;;;;;;;;;;5078178;28;20024;-82
2021/06/13 04:30:04;;;;;;;0.10;0.10;;;;;;;;;;5088634;28;20028;-82
2021/06/13 04:32:30;;;;;;;0.10;0.10;;;;;;;;;;5080234;28;20067;-83
2021/06/13 04:34:56;;;;;;;0.10;0.10;;;;;;;;;;5090454;28;20077;-82
2021/06/13 04:37:22;;;;;;;0.10;0.10;;;;;;;;;;5084571;28;20024;-82
2021/06/13 04:39:48;;;;;;;0.10;0.10;;;;;;;;;;5091443;28;20023;-82
2021/06/13 04:42:14;;;;;;;0.10;0.10;;;;;;;;;;5078698;28;20021;-82
2021/06/13 04:44:40;;;;;;;0.10;0.10;;;;;;;;;;5091159;28;20060;-82
2021/06/13 04:47:07;;;;;;;0.10;0.10;;;;;;;;;;5078825;28;20352;-83
2021/06/13 04:49:33;;;;;;;0.10;0.10;;;;;;;;;;5091232;28;20135;-83
2021/06/13 04:52:00;;;;;;;0.10;0.10;;;;;;;;;;5078952;28;20056;-83
2021/06/13 04:54:29;;;;;;;0.35;0.35;;;;;;;;;;5051243;28;20033;-82
2021/06/13 04:57:18;;;;;;;0.65;0.65;;;;;;;;;;5073182;28;20047;-83
2021/06/13 04:59:44;;;;;;;0.20;0.20;;;;;;;;;;5050818;28;20116;-83
2021/06/13 05:02:10;;;;;;;0.10;0.10;;;;;;;;;;5076341;28;20029;-82
2021/06/13 05:04:36;;;;;;;0.10;0.10;;;;;;;;;;5089774;28;20044;-82
2021/06/13 05:07:04;;;;;;;0.38;0.38;;;;;;;;;;5078834;28;20103;-83
2021/06/13 05:09:31;;;;;;;0.10;0.10;;;;;;;;;;5090971;28;20023;-84
2021/06/13 05:11:56;;;;;;;;;;;;;;;;;;5087801;28;20101;-82
2021/06/13 05:14:23;;;;;;;0.10;0.10;;;;;;;;;;5073608;28;20374;-83
2021/06/13 05:16:49;;;;;;;0.10;0.10;;;;;;;;;;5084817;28;20121;-83
2021/06/13 05:19:15;;;;;;;0.10;0.10;;;;;;;;;;5093804;28;20082;-82
2021/06/13 05:21:41;;;;;;;0.10;0.10;;;;;;;;;;5088978;28;20453;-83
2021/06/13 05:24:07;;;;;;;0.10;0.10;;;;;;;;;;5077206;28;20127;-84
2021/06/13 05:26:33;;;;;;;0.10;0.10;;;;;;;;;;5079879;28;20060;-83
2021/06/13 05:29:00;;;;;;;0.10;0.10;;;;;;;;;;5073304;28;20375;-83
2021/06/13 05:31:26;;;;;;;0.10;0.10;;;;;;;;;;5078988;28;20407;-83
2021/06/13 05:33:53;;;;;;;0.10;0.10;;;;;;;;;;5090205;28;20016;-83
2021/06/13 05:36:19;;;;;;;0.10;0.10;;;;;;;;;;5088073;28;20078;-84
2021/06/13 05:38:45;;;;;;;0.10;0.10;;;;;;;;;;5088906;28;20039;-83
2021/06/13 05:41:12;;;;;;;0.10;0.10;;;;;;;;;;5088517;28;20422;-83
2021/06/13 05:43:38;;;;;;;1.38;1.17;;;;;;;;;;5080898;28;20040;-83
2021/06/13 05:46:05;;;;;;;0.05;0.05;;;;;;;;;;5079288;28;20036;-83
2021/06/13 05:48:32;;;;;;;0.03;0.03;;;;;;;;;;5085674;28;20035;-83
2021/06/13 05:50:58;;;;;;;0.52;0.52;;;;;;;;;;5086921;28;20052;-83
2021/06/13 05:53:24;;;;;;;0.40;0.40;;;;;;;;;;5082378;28;20024;-83
2021/06/13 05:55:50;;;;;;;0.10;0.10;;;;;;;;;;5077060;28;20040;-83
2021/06/13 05:58:16;;;;;;;0.10;0.10;;;;;;;;;;5082970;28;20044;-84
2021/06/13 06:00:42;;;;;;;0.10;0.10;;;;;;;;;;5076092;28;20119;-83
2021/06/13 06:03:08;;;;;;;0.10;0.10;;;;;;;;;;5084007;28;20021;-83
2021/06/13 06:05:35;;;;;;;0.08;0.08;;;;;;;;;;5091252;28;20027;-83
2021/06/13 06:08:02;;;;;;;0.10;0.10;;;;;;;;;;5084350;28;20110;-83
2021/06/13 06:10:30;;;;;;;5.82;0.68;;;;;;;;;;5074293;28;20032;-84
2021/06/13 06:12:56;;;;;;;0.10;0.10;;;;;;;;;;5075958;28;20033;-84
2021/06/13 06:15:23;;;;;;;0.10;0.10;;;;;;;;;;5074170;28;20419;-84
2021/06/13 06:17:50;;;;;;;0.10;0.10;;;;;;;;;;5090368;28;20126;-84
2021/06/13 06:20:18;;;;;;;0.10;0.10;;;;;;;;;;5057814;28;20027;-84
2021/06/13 06:22:44;;;;;;;0.10;0.10;;;;;;;;;;5083957;28;20028;-84
2021/06/13 06:25:10;;;;;;;0.10;0.10;;;;;;;;;;5092218;28;20486;-83
2021/06/13 06:27:37;;;;;;;0.10;0.10;;;;;;;;;;5082872;28;20354;-82
2021/06/13 06:30:03;;;;;;;0.10;0.10;;;;;;;;;;5072053;28;20035;-84
2021/06/13 06:32:29;;;;;;;0.10;0.10;;;;;;;;;;5077709;28;20025;-84
2021/06/13 06:34:55;;;;;;;0.10;0.10;;;;;;;;;;5072211;28;20086;-81
2021/06/13 06:37:22;;;;;;;0.10;0.10;;;;;;;;;;5080337;28;20016;-87
2021/06/13 06:39:48;;;;;;;0.00;0.00;;;;;;;;;;5092363;28;20123;-83
2021/06/13 06:42:14;;;;;;;0.20;0.20;;;;;;;;;;5085289;28;20501;-84
2021/06/13 06:44:40;;;;;;;0.10;0.10;;;;;;;;;;5072917;28;20086;-85
2021/06/13 06:47:06;;;;;;;0.10;0.10;;;;;;;;;;5085643;28;20031;-85
2021/06/13 06:49:32;;;;;;;0.10;0.10;;;;;;;;;;5072936;28;20025;-84
2021/06/13 06:51:58;;;;;;;0.10;0.10;;;;;;;;;;5076025;28;20020;-85
2021/06/13 06:54:25;;;;;;;0.00;0.00;;;;;;;;;;5092331;28;20039;-85
2021/06/13 06:56:51;;;;;;;0.10;0.10;;;;;;;;;;5081360;28;20055;-85
2021/06/13 06:59:17;;;;;;;0.20;0.20;;;;;;;;;;5092269;28;20028;-84
2021/06/13 07:01:43;;;;;;;1.35;1.25;;;;;;;;;;5078551;28;20275;-84
2021/06/13 07:04:10;;;;;;;0.40;0.40;;;;;;;;;;5090935;28;20052;-85
2021/06/13 07:06:36;;;;;;;0.00;0.00;;;;;;;;;;5079595;28;20715;-85
2021/06/13 07:09:02;;;;;;;0.10;0.10;;;;;;;;;;5089924;28;20035;-85
2021/06/13 07:11:28;;;;;;;0.17;0.17;;;;;;;;;;5085983;28;20024;-91
2021/06/13 07:13:54;;;;;;;0.00;0.00;;;;;;;;;;5077726;28;20313;-86
2021/06/13 07:16:20;;;;;;;0.10;0.10;;;;;;;;;;5076197;28;20111;-84
2021/06/13 07:18:48;;;;;;;0.10;0.10;;;;;;;;;;5093478;28;20020;-83
2021/06/13 07:21:14;;;;;;;0.00;0.00;;;;;;;;;;5088557;28;20035;-86
2021/06/13 07:23:40;;;;;;;0.03;0.03;;;;;;;;;;5087211;28;20039;-87
2021/06/13 07:26:06;;;;;;;0.00;0.00;;;;;;;;;;5086847;28;20032;-85
2021/06/13 07:28:34;;;;;;;0.35;0.35;;;;;;;;;;5085880;28;20034;-85
2021/06/13 07:31:01;;;;;;;0.00;0.00;;;;;;;;;;5091749;28;20111;-89
2021/06/13 07:33:27;;;;;;;0.10;0.10;;;;;;;;;;5072553;28;20021;-87
2021/06/13 07:35:54;;;;;;;0.00;0.00;;;;;;;;;;5074369;28;20526;-87
2021/06/13 07:38:20;;;;;;;0.10;0.10;;;;;;;;;;5083352;28;20024;-84
2021/06/13 07:40:46;;;;;;;0.10;0.10;;;;;;;;;;5086794;28;20126;-83
2021/06/13 07:43:12;;;;;;;0.10;0.10;;;;;;;;;;5090875;28;20360;-83
2021/06/13 07:45:38;;;;;;;0.00;0.00;;;;;;;;;;5086693;28;20487;-83
2021/06/13 07:48:06;;;;;;;0.00;0.00;;;;;;;;;;5082156;28;20062;-83
2021/06/13 07:50:32;;;;;;;0.10;0.10;;;;;;;;;;5086566;28;20051;-85
2021/06/13 07:52:58;;;;;;;0.10;0.10;;;;;;;;;;5080757;28;20025;-84
2021/06/13 07:55:24;;;;;;;0.00;0.00;;;;;;;;;;5073394;28;20111;-86
2021/06/13 07:57:50;;;;;;;0.00;0.00;;;;;;;;;;5080962;28;20035;-83
2021/06/13 08:00:19;;;;;;;0.32;0.32;;;;;;;;;;5071727;28;20102;-79
2021/06/13 08:02:45;;;;;;;0.35;0.35;;;;;;;;;;5080902;28;20028;-80
2021/06/13 08:05:13;;;;;;;0.20;0.20;;;;;;;;;;5072622;28;20372;-79
2021/06/13 08:07:39;;;;;;;0.10;0.10;;;;;;;;;;5081289;28;20043;-78
2021/06/13 08:10:06;;;;;;;3.72;3.47;;;;;;;;;;5088806;28;20474;-79
2021/06/13 08:12:32;;;;;;;;;;;;;;;;;;5081511;28;20033;-78
2021/06/13 08:14:58;;;;;;;0.47;0.47;;;;;;;;;;5071565;28;19905;-81
2021/06/13 08:17:24;;;;;;;1.10;0.33;;;;;;;;;;5082605;28;20094;-80
2021/06/13 08:19:50;;;;;;;2.60;0.73;;;;;;;;;;5071516;28;20020;-83
2021/06/13 08:22:16;;;;;;;1.33;1.20;;;;;;;;;;5077494;28;20370;-80
2021/06/13 08:24:43;;;;;;;0.30;0.30;;;;;;;;;;5071499;28;20036;-79
2021/06/13 08:27:09;;;;;;;1.05;0.32;;;;;;;;;;5075266;28;20059;-79
2021/06/13 08:29:35;;;;;;;0.10;0.10;;;;;;;;;;5091265;28;20056;-80
2021/06/13 08:32:01;;;;;;;0.40;0.40;;;;;;;;;;5079000;28;20025;-80
2021/06/13 08:34:27;;;;;;;0.10;0.10;;;;;;;;;;5091462;28;20024;-79
2021/06/13 08:36:54;;;;;;;0.00;0.00;;;;;;;;;;5084731;28;20024;-79
2021/06/13 08:39:20;;;;;;;0.10;0.10;;;;;;;;;;5071834;28;20275;-80
2021/06/13 08:41:46;;;;;;;0.20;0.20;;;;;;;;;;5077885;28;20070;-79
2021/06/13 08:44:12;;;;;;;0.10;0.10;;;;;;;;;;5087951;28;20047;-78
2021/06/13 08:46:38;;;;;;;0.20;0.20;;;;;;;;;;5088116;28;20458;-79
2021/06/13 08:49:05;;;;;;;0.00;0.00;;;;;;;;;;5078278;28;20267;-79
2021/06/13 08:51:31;;;;;;;0.55;0.55;;;;;;;;;;5082023;28;20070;-79
2021/06/13 08:53:57;;;;;;;0.00;0.00;;;;;;;;;;5077779;28;20028;-78
2021/06/13 08:56:23;;;;;;;0.10;0.10;;;;;;;;;;5079273;28;20070;-79
2021/06/13 08:58:51;;;;;;;0.10;0.10;;;;;;;;;;5077059;28;20297;-79
2021/06/13 09:01:17;;;;;;;0.00;0.00;;;;;;;;;;5078130;28;20399;-79
2021/06/13 09:03:43;;;;;;;0.13;0.13;;;;;;;;;;5087648;28;20032;-80
2021/06/13 09:06:11;;;;;;;0.10;0.10;;;;;;;;;;5088194;28;20909;-80
2021/06/13 09:08:37;;;;;;;0.00;0.00;;;;;;;;;;5088023;28;20028;-82
2021/06/13 09:11:04;;;;;;;0.05;0.05;;;;;;;;;;5087464;28;20497;-80
2021/06/13 09:13:31;;;;;;;3.90;2.40;;;;;;;;;;5075460;28;20040;-79
2021/06/13 09:15:57;;;;;;;0.25;0.10;;;;;;;;;;5080092;28;20024;-79
2021/06/13 09:18:42;;;;;;;1.53;1.43;;;;;;;;;;5086126;28;20573;-79
2021/06/13 09:21:10;;;;;;;0.10;0.10;;;;;;;;;;5083226;28;20305;-80
2021/06/13 09:23:38;;;;;;;0.57;0.57;;;;;;;;;;5065643;28;20514;-79
2021/06/13 09:26:09;;;;;;;0.50;0.50;;;;;;;;;;5075104;28;20016;-79
2021/06/13 09:28:36;;;;;;;0.00;0.00;;;;;;;;;;5081522;28;20624;-80
2021/06/13 09:31:03;;;;;;;1.50;1.40;;;;;;;;;;5079353;28;20049;-79
2021/06/13 09:33:36;;;;;;;12.77;1.27;;;;;;;;;;5071590;28;20021;-80
2021/06/13 09:36:04;;;;;;;0.80;0.65;;;;;;;;;;5061810;28;20025;-79
2021/06/13 09:38:34;;;;;;;0.28;0.28;;;;;;;;;;5072068;28;20605;-81
2021/06/13 09:41:06;;;;;;;0.00;0.00;;;;;;;;;;5064081;28;20025;-81
2021/06/13 09:43:41;;;;;;;0.03;0.03;;;;;;;;;;5068805;28;20025;-80
2021/06/13 09:46:15;;;;;;;0.00;0.00;;;;;;;;;;5079190;28;20064;-79
2021/06/13 09:48:45;;;;;;;0.63;0.63;;;;;;;;;;5087846;28;20016;-79
2021/06/13 09:51:13;;;;;;;0.40;0.32;;;;;;;;;;5088373;28;20438;-79
2021/06/13 09:53:44;;;;;;;0.10;0.10;;;;;;;;;;5080941;28;20016;-79
2021/06/13 09:56:14;;;;;;;0.10;0.10;;;;;;;;;;5071985;28;20040;-80
2021/06/13 09:58:50;;;;;;;0.38;0.38;;;;;;;;;;5065005;28;20028;-80
2021/06/13 10:01:16;;;;;;;0.03;0.03;;;;;;;;;;5078263;28;20070;-80
2021/06/13 10:03:46;;;;;;;0.35;0.35;;;;;;;;;;5072044;28;20077;-77
2021/06/13 10:06:12;;;;;;;0.00;0.00;;;;;;;;;;5078832;28;20024;-80
2021/06/13 10:08:39;;;;;;;0.05;0.05;;;;;;;;;;5086046;28;20477;-80
2021/06/13 10:11:05;;;;;;;;;;;;;;;;;;5086319;28;20029;-79
2021/06/13 10:13:40;;;;;;;0.10;0.10;;;;;;;;;;5081018;28;20354;-81
2021/06/13 10:16:07;;;;;;;0.20;0.20;;;;;;;;;;5077429;28;20032;-80
2021/06/13 10:18:33;;;;;;;0.00;0.00;;;;;;;;;;5086365;28;20107;-80
2021/06/13 10:21:29;;;;;;;0.30;0.30;;;;;;;;;;5085538;28;20027;-79
2021/06/13 10:23:56;;;;;;;5.30;1.77;;;;;;;;;;5076197;28;20463;-80
2021/06/13 10:26:22;;;;;;;0.05;0.05;;;;;;;;;;5074656;28;20094;-79
2021/06/13 10:28:49;;;;;;;0.20;0.20;;;;;;;;;;5068093;28;20079;-79
2021/06/13 10:31:15;;;;;;;7.28;0.68;;;;;;;;;;5077282;28;20031;-80
2021/06/13 10:33:41;;;;;;;0.10;0.10;;;;;;;;;;5064456;28;20031;-79
2021/06/13 10:36:08;;;;;;;0.10;0.10;;;;;;;;;;5073859;28;20503;-79
2021/06/13 10:38:34;;;;;;;2.30;0.98;;;;;;;;;;5062820;28;20029;-78
2021/06/13 10:41:00;;;;;;;0.10;0.10;;;;;;;;;;5067404;28;20425;-79
2021/06/13 10:43:30;;;;;;;0.00;0.00;;;;;;;;;;5081145;28;20021;-79
2021/06/13 10:46:05;;;;;;;1.55;0.40;;;;;;;;;;5076721;28;20040;-79
2021/06/13 10:48:38;;;;;;;0.73;0.73;;;;;;;;;;5078067;28;20580;-81
2021/06/13 10:51:23;;;;;;;4.47;0.47;;;;;;;;;;5083774;28;20403;-78
2021/06/13 10:53:49;;;;;;;0.22;0.22;;;;;;;;;;5087969;28;20058;-79
2021/06/13 10:56:24;;;;;;;0.10;0.10;;;;;;;;;;5083766;28;20025;-78
2021/06/13 10:58:51;;;;;;;0.20;0.20;;;;;;;;;;5077630;28;20285;-79
2021/06/13 11:01:28;;;;;;;0.10;0.10;;;;;;;;;;5076413;28;20035;-80
2021/06/13 11:03:59;;;;;;;0.15;0.15;;;;;;;;;;5076767;28;20368;-80
2021/06/13 11:06:53;;;;;;;0.10;0.10;;;;;;;;;;5081690;28;20024;-78
2021/06/13 11:09:21;;;;;;;1.38;1.27;;;;;;;;;;5070760;28;20495;-78
2021/06/13 11:11:55;;;;;;;0.65;0.65;;;;;;;;;;5077588;28;20116;-77
2021/06/13 11:14:25;;;;;;;0.22;0.22;;;;;;;;;;5081633;28;20017;-79
2021/06/13 11:16:52;;;;;;;0.10;0.10;;;;;;;;;;5076153;28;20029;-79
2021/06/13 11:19:17;;;;;;;;;;;;;;;;;;5091924;28;20471;-80
2021/06/13 11:21:44;;;;;;;0.00;0.00;;;;;;;;;;5081035;28;19951;-80
2021/06/13 11:24:10;;;;;;;0.20;0.20;;;;;;;;;;5090140;28;20063;-78
2021/06/13 11:26:37;;;;;;;0.25;0.25;;;;;;;;;;5082930;28;20286;-78
2021/06/13 11:29:04;;;;;;;0.00;0.00;;;;;;;;;;5078769;28;20115;-79
2021/06/13 11:31:30;;;;;;;;;;;;;;;;;;5072096;28;20070;-80
2021/06/13 11:33:57;;;;;;;0.10;0.10;;;;;;;;;;5086717;28;19904;-78
2021/06/13 11:36:31;;;;;;;0.10;0.10;;;;;;;;;;5069391;28;20047;-80
2021/06/13 11:39:03;;;;;;;0.45;0.45;;;;;;;;;;5063578;28;20115;-80
2021/06/13 11:41:31;;;;;;;0.08;0.08;;;;;;;;;;5066291;28;20062;-80
2021/06/13 11:44:00;;;;;;;0.28;0.28;;;;;;;;;;5062774;28;20151;-78
2021/06/13 11:46:37;;;;;;;0.00;0.00;;;;;;;;;;5069780;28;20033;-78
2021/06/13 11:49:04;;;;;;;0.38;0.38;;;;;;;;;;5064627;28;20483;-78
2021/06/13 11:51:31;;;;;;;0.20;0.20;;;;;;;;;;5066802;28;20533;-78
2021/06/13 11:53:57;;;;;;;0.00;0.00;;;;;;;;;;5062778;28;20573;-79
2021/06/13 11:56:33;;;;;;;0.00;0.00;;;;;;;;;;5050008;28;20051;-78
2021/06/13 11:59:14;;;;;;;0.68;0.68;;;;;;;;;;5060771;28;20387;-79
2021/06/13 12:01:44;;;;;;;0.00;0.00;;;;;;;;;;5078300;28;20119;-81
2021/06/13 12:04:15;;;;;;;0.40;0.40;;;;;;;;;;5071917;28;20066;-79
2021/06/13 12:06:41;;;;;;;0.28;0.28;;;;;;;;;;5077138;28;20498;-81
2021/06/13 12:09:09;;;;;;;2.08;1.15;;;;;;;;;;5088901;28;20036;-80
2021/06/13 12:11:36;;;;;;;0.20;0.20;;;;;;;;;;5082760;28;20107;-78
2021/06/13 12:14:20;;;;;;;0.30;0.30;;;;;;;;;;5087160;28;20024;-79
2021/06/13 12:16:50;;;;;;;0.30;0.30;;;;;;;;;;5085060;28;20035;-79
2021/06/13 12:19:24;;;;;;;6.32;1.33;;;;;;;;;;5071082;28;20039;-79
2021/06/13 12:21:50;;;;;;;0.60;0.60;;;;;;;;;;5072848;28;20107;-79
2021/06/13 12:29:39;;;;;;;0.20;0.20;;;;;;;;;;5063818;28;20044;-80
2021/06/13 12:32:15;;;;;;;0.20;0.20;;;;;;;;;;5065296;28;20055;-80
2021/06/13 12:34:41;;;;;;;0.47;0.47;;;;;;;;;;5061447;28;20438;-79
2021/06/13 12:37:15;;;;;;;0.52;0.52;;;;;;;;;;5067806;28;20056;-79
2021/06/13 12:39:41;;;;;;;0.70;0.70;;;;;;;;;;5061306;28;20502;-79
2021/06/13 12:42:11;;;;;;;0.90;0.90;;;;;;;;;;5068899;28;20437;-81
2021/06/13 12:44:38;;;;;;;0.90;0.90;;;;;;;;;;5061845;28;20041;-81
2021/06/13 12:47:05;;;;;;;1.10;1.10;;;;;;;;;;5076519;28;20024;-79
2021/06/13 12:49:41;;;;;;;1.15;1.15;;;;;;;;;;5062291;28;20040;-80
2021/06/13 12:52:11;;;;;;;1.10;1.10;;;;;;;;;;5073043;28;20127;-79
2021/06/13 12:54:37;;;;;;;1.30;1.30;;;;;;;;;;5059223;28;20111;-80
2021/06/13 12:57:04;;;;;;;1.55;1.45;;;;;;;;;;5071716;28;20020;-80
2021/06/13 12:59:30;;;;;;;2.42;1.95;;;;;;;;;;5058784;28;20099;-79
2021/06/13 13:01:56;;;;;;;1.40;1.17;;;;;;;;;;5068732;28;20037;-79
2021/06/13 13:04:41;;;;;;;2.35;1.63;;;;;;;;;;5059679;28;20032;-79
2021/06/13 13:07:07;;;;;;;2.13;1.63;;;;;;;;;;5063990;28;20708;-79
2021/06/13 13:09:33;;;;;;;6.85;1.27;;;;;;;;;;5057122;28;20055;-79
2021/06/13 13:11:59;;;;;;;3.72;2.28;;;;;;;;;;5067544;28;20033;-78
2021/06/13 13:14:25;;;;;;;7.00;2.58;;;;;;;;;;5058232;28;20097;-80
2021/06/13 13:16:53;;;;;;;3.70;2.38;;;;;;;;;;5057433;28;20033;-79
2021/06/13 13:19:32;;;;;;;2.80;2.25;;;;;;;;;;5059349;28;20065;-79
2021/06/13 13:22:15;;;;;;;4.18;2.10;;;;;;;;;;5065283;28;20021;-77
2021/06/13 13:24:41;;;;;;;7.97;2.97;;;;;;;;;;5047848;28;20490;-79
2021/06/13 13:27:08;;;;;;;3.43;1.60;;;;;;;;;;5072783;28;20055;-80
2021/06/13 13:29:45;;;;;;;6.97;2.08;;;;;;;;;;5088295;28;20263;-79
2021/06/13 13:32:11;;;;;;;3.42;2.67;;;;;;;;;;5078338;28;20123;-80
2021/06/13 13:34:37;;;;;;;7.57;3.05;;;;;;;;;;5092187;28;20036;-80
2021/06/13 13:37:04;;;;;;;2.07;1.87;;;;;;;;;;5077928;28;20041;-79
2021/06/13 13:39:30;;;;;;;6.60;2.28;;;;;;;;;;5090906;28;20269;-77
2021/06/13 13:41:58;;;;;;;5.32;2.92;;;;;;;;;;5079876;28;20051;-78
2021/06/13 13:44:24;;;;;;;4.15;2.50;;;;;;;;;;5091549;28;20078;-79
2021/06/13 13:46:58;;;;;;;2.70;1.95;;;;;;;;;;5081086;28;20021;-77
2021/06/13 13:49:24;;;;;;;1.80;1.50;;;;;;;;;;5076385;28;20036;-79
2021/06/13 13:51:56;;;;;;;2.63;2.07;;;;;;;;;;5069765;28;20097;-79
2021/06/13 13:54:27;;;;;;;0.40;0.40;;;;;;;;;;5091134;28;20763;-79
2021/06/13 13:56:55;;;;;;;2.20;1.85;;;;;;;;;;5065584;28;20036;-79
2021/06/13 13:59:21;;;;;;;1.10;1.00;;;;;;;;;;5062237;28;20028;-79
2021/06/13 14:01:47;;;;;;;1.65;1.27;;;;;;;;;;5071646;28;20093;-79
2021/06/13 14:04:13;;;;;;;2.10;1.53;;;;;;;;;;5062148;28;20036;-80
2021/06/13 14:06:39;;;;;;;2.60;2.07;;;;;;;;;;5069758;28;20323;-78
2021/06/13 14:09:07;;;;;;;2.67;2.13;;;;;;;;;;5061222;28;20021;-79
2021/06/13 14:11:33;;;;;;;4.82;3.25;;;;;;;;;;5071445;28;20056;-79
2021/06/13 14:13:59;;;;;;;2.30;1.80;;;;;;;;;;5061138;28;20081;-79
2021/06/13 14:16:26;;;;;;;1.77;1.65;;;;;;;;;;5068909;28;20075;-78
2021/06/13 14:18:52;;;;;;;6.13;3.80;;;;;;;;;;5064400;28;20595;-79
2021/06/13 14:21:18;;;;;;;2.47;1.33;;;;;;;;;;5069788;28;20118;-77
2021/06/13 14:23:44;;;;;;;2.00;1.03;;;;;;;;;;5066471;28;20036;-78
2021/06/13 14:26:11;;;;;;;1.43;1.33;;;;;;;;;;5069060;28;20031;-78
2021/06/13 14:28:37;;;;;;;;;;;;;;;;;;5067592;28;20345;-80
2021/06/13 14:31:03;;;;;;;4.05;2.20;;;;;;;;;;5067458;28;20292;-82
2021/06/13 14:33:29;;;;;;;2.90;1.93;;;;;;;;;;5063693;28;20025;-80
2021/06/13 14:35:55;;;;;;;2.22;2.13;;;;;;;;;;5068381;28;20032;-82
2021/06/13 14:38:21;;;;;;;2.72;2.13;;;;;;;;;;5066914;28;20075;-82
2021/06/13 14:40:47;;;;;;;0.63;0.60;;;;;;;;;;5066466;28;20761;-83
2021/06/13 14:43:14;;;;;;;1.33;0.65;;;;;;;;;;5060803;28;20430;-81
2021/06/13 14:45:41;;;;;;;1.23;1.02;;;;;;;;;;5059930;28;20043;-83
2021/06/13 14:48:07;;;;;;;0.80;0.65;;;;;;;;;;5079610;28;20115;-82
2021/06/13 14:50:33;;;;;;;1.05;0.82;;;;;;;;;;5071642;28;20071;-83
2021/06/13 14:53:03;;;;;;;2.55;1.45;;;;;;;;;;5081850;28;20031;-82
2021/06/13 14:55:29;;;;;;;0.20;0.20;;;;;;;;;;5087299;28;20526;-81